createdAt,value
2023-04-30T01:12:03.716Z,8.90
2023-04-30T01:14:41.411Z,8.80
2023-04-30T01:17:21.244Z,8.80
2023-04-30T01:22:38.406Z,8.80
2023-04-30T01:25:33.836Z,8.70
2023-04-30T01:36:12.388Z,8.70
2023-04-30T01:38:58.344Z,8.80
2023-04-30T01:41:35.978Z,8.70
2023-04-30T01:44:24.937Z,8.70
2023-04-30T01:47:01.392Z,8.70
2023-04-30T01:52:14.823Z,8.70
2023-04-30T01:54:56.080Z,8.70
2023-04-30T01:57:32.398Z,8.70
2023-04-30T02:07:46.696Z,8.70
2023-04-30T03:30:46.405Z,8.60
2023-04-30T03:43:18.602Z,8.60
2023-04-30T03:45:51.335Z,8.60
2023-04-30T04:00:57.566Z,8.50
2023-04-30T04:16:02.210Z,8.50
2023-04-30T04:31:09.712Z,8.50
2023-04-30T04:36:10.570Z,8.20
2023-04-30T04:46:16.762Z,8.60
2023-04-30T05:31:37.059Z,9.00
2023-04-30T05:46:41.705Z,9.30
2023-04-30T05:49:12.436Z,9.30
2023-04-30T06:01:46.930Z,9.60
2023-04-30T06:16:55.461Z,9.80
2023-04-30T06:32:01.137Z,10.30
2023-04-30T06:47:06.054Z,10.70
2023-04-30T06:59:37.872Z,11.30
2023-04-30T07:04:40.991Z,11.20
2023-04-30T07:07:11.025Z,11.30
2023-04-30T07:14:42.274Z,12.00
2023-04-30T07:17:14.916Z,11.90
2023-04-30T07:19:45.107Z,12.30
2023-04-30T07:39:50.396Z,13.10
2023-04-30T07:42:20.402Z,12.70
2023-04-30T07:44:51.057Z,13.20
2023-04-30T07:47:23.717Z,12.70
2023-04-30T07:49:53.965Z,13.10
2023-04-30T07:52:24.163Z,13.20
2023-04-30T07:54:54.204Z,13.20
2023-04-30T08:02:30.983Z,13.30
2023-04-30T08:10:02.070Z,15.00
2023-04-30T08:25:14.055Z,14.00
2023-04-30T08:40:21.049Z,14.50
2023-04-30T08:43:02.550Z,14.80
2023-04-30T08:48:08.229Z,15.70
2023-04-30T08:53:11.029Z,15.60
2023-04-30T08:55:43.361Z,16.60
2023-04-30T08:58:13.586Z,16.10
2023-04-30T09:03:16.989Z,16.50
2023-04-30T09:05:47.108Z,17.10
2023-04-30T09:08:21.379Z,17.50
2023-04-30T09:10:51.505Z,17.20
2023-04-30T09:13:21.530Z,18.10
2023-04-30T09:15:55.251Z,17.80
2023-04-30T09:18:30.057Z,18.50
2023-04-30T09:21:02.218Z,18.20
2023-04-30T09:33:49.132Z,18.90
2023-04-30T09:36:19.651Z,18.40
2023-04-30T09:38:50.137Z,18.30
2023-04-30T09:41:28.687Z,18.50
2023-04-30T09:43:59.896Z,18.60
2023-04-30T09:46:34.859Z,19.10
2023-04-30T09:49:09.203Z,19.10
2023-04-30T09:51:56.126Z,19.10
2023-04-30T09:54:28.934Z,21.50
2023-04-30T09:56:59.950Z,17.40
2023-04-30T09:59:35.479Z,17.20
2023-04-30T10:02:08.033Z,17.30
2023-04-30T10:04:42.554Z,19.40
2023-04-30T10:07:16.716Z,18.00
2023-04-30T10:09:53.148Z,19.00
2023-04-30T10:12:27.404Z,18.70
2023-04-30T10:14:58.542Z,18.30
2023-04-30T10:17:33.042Z,18.10
2023-04-30T10:20:09.797Z,18.10
2023-04-30T10:22:41.882Z,18.60
2023-04-30T10:25:13.667Z,18.50
2023-04-30T10:27:43.727Z,18.20
2023-04-30T10:30:14.873Z,18.30
2023-04-30T10:33:02.716Z,18.50
2023-04-30T10:35:43.659Z,18.90
2023-04-30T10:38:21.917Z,19.30
2023-04-30T10:40:52.156Z,19.70
2023-04-30T10:43:22.751Z,18.90
2023-04-30T10:45:53.354Z,18.00
2023-04-30T10:48:27.585Z,18.40
2023-04-30T10:51:02.353Z,19.50
2023-04-30T10:53:34.680Z,20.80
2023-04-30T10:56:09.533Z,20.70
2023-04-30T10:58:41.359Z,21.10
2023-04-30T11:01:15.009Z,21.30
2023-04-30T11:03:47.015Z,21.40
2023-04-30T11:06:26.729Z,21.00
2023-04-30T11:09:06.340Z,21.40
2023-04-30T11:11:37.114Z,21.70
2023-04-30T11:16:38.298Z,21.80
2023-04-30T11:19:14.760Z,21.40
2023-04-30T11:24:53.137Z,21.10
2023-04-30T11:27:24.740Z,21.30
2023-04-30T11:29:56.090Z,21.60
2023-04-30T11:32:28.576Z,21.70
2023-04-30T11:34:58.809Z,21.80
2023-04-30T11:37:34.156Z,21.90
2023-04-30T11:40:06.018Z,22.30
2023-04-30T11:42:37.426Z,23.30
2023-04-30T11:45:09.705Z,23.10
2023-04-30T11:47:47.985Z,21.60
2023-04-30T11:50:20.042Z,21.90
2023-04-30T11:52:56.526Z,22.20
2023-04-30T11:55:28.003Z,22.40
2023-04-30T11:58:00.219Z,22.60
2023-04-30T12:00:31.690Z,21.70
2023-04-30T12:03:04.488Z,21.90
2023-04-30T12:05:34.739Z,21.40
2023-04-30T12:08:09.435Z,22.30
2023-04-30T12:10:39.716Z,22.10
2023-04-30T12:18:16.049Z,22.00
2023-04-30T12:20:46.498Z,22.40
2023-04-30T12:23:19.257Z,22.00
2023-04-30T12:28:19.668Z,21.80
2023-04-30T12:30:50.610Z,22.40
2023-04-30T12:33:21.693Z,23.00
2023-04-30T12:35:51.759Z,23.40
2023-04-30T12:38:24.426Z,23.60
2023-04-30T12:43:25.050Z,21.80
2023-04-30T12:45:58.088Z,20.90
2023-04-30T12:48:28.795Z,20.50
2023-04-30T12:51:01.995Z,20.20
2023-04-30T12:53:35.077Z,20.70
2023-04-30T12:56:13.132Z,21.40
2023-04-30T12:58:45.711Z,21.70
2023-04-30T13:08:58.412Z,22.50
2023-04-30T13:11:29.437Z,22.60
2023-04-30T13:24:05.770Z,21.10
2023-04-30T13:39:10.678Z,21.30
2023-04-30T13:46:41.749Z,20.90
2023-04-30T13:51:42.243Z,20.60
2023-04-30T14:06:47.721Z,19.90
2023-04-30T14:24:26.233Z,20.60
2023-04-30T14:39:32.393Z,21.00
2023-04-30T15:24:54.330Z,20.10
2023-04-30T15:27:24.364Z,20.50
2023-04-30T15:29:54.601Z,20.40
2023-04-30T15:32:24.731Z,20.80
2023-04-30T15:34:55.394Z,20.20
2023-04-30T15:47:29.259Z,18.00
2023-04-30T15:49:59.324Z,18.00
2023-04-30T16:02:41.942Z,17.80
2023-04-30T16:07:44.840Z,18.10
2023-04-30T16:10:17.782Z,18.10
2023-04-30T16:17:49.341Z,18.20
2023-04-30T16:20:20.577Z,18.00
2023-04-30T16:22:52.837Z,18.00
2023-04-30T16:25:25.505Z,18.00
2023-04-30T16:30:27.030Z,18.50
2023-04-30T16:32:57.066Z,17.60
2023-04-30T16:35:27.178Z,17.80
2023-04-30T16:43:01.761Z,17.30
2023-04-30T16:50:35.584Z,16.80
2023-04-30T16:53:06.441Z,16.70
2023-04-30T16:58:09.363Z,16.80
2023-04-30T17:00:39.424Z,16.70
2023-04-30T17:05:40.626Z,16.40
2023-04-30T17:08:12.987Z,16.20
2023-04-30T17:10:45.860Z,16.10
2023-04-30T17:25:53.142Z,15.70
2023-04-30T17:28:23.120Z,15.60
2023-04-30T17:30:53.429Z,15.50
2023-04-30T17:38:25.950Z,15.20
2023-04-30T17:40:59.502Z,15.40
2023-04-30T17:48:31.226Z,15.40
2023-04-30T17:51:01.331Z,15.40
2023-04-30T17:53:31.424Z,15.10
2023-04-30T17:56:04.445Z,15.00
2023-04-30T17:58:34.495Z,14.60
2023-04-30T18:01:04.477Z,14.30
2023-04-30T18:03:36.573Z,14.90
2023-04-30T18:06:07.439Z,14.00
2023-04-30T18:08:37.586Z,14.60
2023-04-30T18:11:10.292Z,13.70
2023-04-30T18:13:40.502Z,14.50
2023-04-30T18:16:10.854Z,14.10
2023-04-30T18:18:41.198Z,14.20
2023-04-30T18:23:41.637Z,13.30
2023-04-30T18:26:14.385Z,13.60
2023-04-30T18:28:44.590Z,13.50
2023-04-30T18:31:14.600Z,13.50
2023-04-30T18:33:44.719Z,13.80
2023-04-30T18:36:15.014Z,12.90
2023-04-30T18:38:45.764Z,12.90
2023-04-30T18:41:18.407Z,13.10
2023-04-30T18:46:19.236Z,12.30
2023-04-30T18:48:49.277Z,12.30
2023-04-30T18:51:19.439Z,12.90
2023-04-30T18:56:23.361Z,12.50
2023-04-30T18:58:53.471Z,12.80
2023-04-30T19:01:27.488Z,12.10
2023-04-30T19:03:57.418Z,12.40
2023-04-30T19:06:28.407Z,12.50
2023-04-30T19:08:59.855Z,12.40
2023-04-30T19:11:35.653Z,12.10
2023-04-30T19:14:06.521Z,12.30
2023-04-30T19:19:07.328Z,11.80
2023-04-30T19:21:37.550Z,11.90
2023-04-30T19:24:07.746Z,11.80
2023-04-30T19:26:43.173Z,11.20
2023-04-30T19:29:13.345Z,11.70
2023-04-30T19:31:43.466Z,11.80
2023-04-30T19:34:13.990Z,11.40
2023-04-30T19:36:44.306Z,11.60
2023-04-30T19:39:15.773Z,11.50
2023-04-30T19:41:48.401Z,11.60
2023-04-30T19:44:20.121Z,11.50
2023-04-30T19:46:50.243Z,11.50
2023-04-30T19:49:20.440Z,10.80
2023-04-30T19:51:50.452Z,11.30
2023-04-30T19:56:54.763Z,11.00
2023-04-30T19:59:26.886Z,10.80
2023-04-30T20:01:57.234Z,10.60
2023-04-30T20:09:28.616Z,10.80
2023-04-30T20:12:03.747Z,10.90
2023-04-30T20:19:34.684Z,11.00
2023-04-30T20:22:05.010Z,10.80
2023-04-30T20:24:35.219Z,10.50
2023-04-30T20:27:07.843Z,10.60
2023-04-30T20:32:10.430Z,10.30
2023-04-30T20:34:40.475Z,10.20
2023-04-30T20:37:10.549Z,10.20
2023-04-30T20:39:41.607Z,10.00
2023-04-30T20:42:14.193Z,10.50
2023-04-30T20:47:14.579Z,10.60
2023-04-30T20:49:45.144Z,10.60
2023-04-30T20:52:15.447Z,10.60
2023-04-30T20:57:18.493Z,10.30
2023-04-30T21:02:19.067Z,10.00
2023-04-30T21:04:49.355Z,9.70
2023-04-30T21:07:19.370Z,10.50
2023-04-30T21:09:50.987Z,10.60
2023-04-30T21:12:23.609Z,10.30
2023-04-30T21:14:54.554Z,10.50
2023-04-30T21:22:27.850Z,10.80
2023-04-30T21:27:30.866Z,10.40
2023-04-30T21:30:00.867Z,11.20
2023-04-30T21:32:31.668Z,10.70
2023-04-30T21:42:36.816Z,10.20
2023-04-30T21:55:11.788Z,10.20
2023-04-30T22:05:22.040Z,10.40
2023-04-30T22:07:52.142Z,10.20
2023-04-30T22:15:29.337Z,9.50
2023-04-30T22:20:35.315Z,9.90
2023-04-30T22:50:47.990Z,8.70
2023-04-30T22:55:48.494Z,9.20
2023-04-30T23:03:21.825Z,9.40
2023-04-30T23:05:51.854Z,8.90
2023-04-30T23:08:21.910Z,8.80
2023-04-30T23:10:53.271Z,9.00
2023-04-30T23:13:25.993Z,9.10
2023-04-30T23:18:32.497Z,8.70
2023-04-30T23:21:03.767Z,9.70
2023-04-30T23:26:04.169Z,9.30
2023-04-30T23:33:38.388Z,9.20
2023-04-30T23:36:09.448Z,9.30
2023-04-30T23:43:42.854Z,8.80
2023-04-30T23:46:13.002Z,8.80
2023-04-30T23:48:43.040Z,9.10
